Time;durP1;ratioP1;P1;durP2;ratioP2;P2;SDS_P1;SDS_P2;PMS_P1;PMS_P2;Temp;Humidity;BMP_temperature;BMP_pressure;BME280_temperature;BME280_humidity;BME280_pressure;Samples;Min_cycle;Max_cycle;Signal;HPM_P1;HPM_P2
2022/01/29 00:00:37;;;;;;;4.47;3.72;;;18.70;33.00;;;;;;5147243;27;46905;-22
2022/01/29 00:03:05;;;;;;;4.25;3.63;;;18.70;33.00;;;;;;5150513;27;46831;-19
2022/01/29 00:05:32;;;;;;;3.75;3.40;;;18.70;33.00;;;;;;5151190;27;48210;-19
2022/01/29 00:07:58;;;;;;;4.65;4.10;;;18.70;33.00;;;;;;5150587;27;46968;-20
2022/01/29 00:10:25;;;;;;;4.10;3.70;;;18.70;33.00;;;;;;5150919;27;46986;-20
2022/01/29 00:12:52;;;;;;;5.07;4.30;;;18.70;33.00;;;;;;5151072;27;46805;-20
2022/01/29 00:15:20;;;;;;;4.70;4.15;;;18.60;32.90;;;;;;5151150;27;49150;-14
2022/01/29 00:17:46;;;;;;;5.15;3.60;;;18.70;33.00;;;;;;5150813;27;46865;-14
2022/01/29 00:20:15;;;;;;;4.53;3.95;;;18.60;32.90;;;;;;5150638;27;46825;-13
2022/01/29 00:22:41;;;;;;;3.90;3.50;;;18.60;32.80;;;;;;5150906;27;47272;-14
2022/01/29 00:25:08;;;;;;;4.10;3.70;;;18.70;32.90;;;;;;5150425;27;48220;-14
2022/01/29 00:27:36;;;;;;;4.20;3.58;;;18.60;32.80;;;;;;5150492;27;46807;-14
2022/01/29 00:30:07;;;;;;;4.72;3.70;;;18.60;32.80;;;;;;5150487;27;46870;-14
2022/01/29 00:32:34;;;;;;;4.38;3.97;;;18.70;32.90;;;;;;5150495;27;47220;-14
2022/01/29 00:35:00;;;;;;;4.65;4.22;;;18.70;32.90;;;;;;5150288;27;48848;-14
2022/01/29 00:37:28;;;;;;;4.47;3.97;;;18.60;32.80;;;;;;5150233;27;46829;-15
2022/01/29 00:39:55;;;;;;;4.78;4.20;;;18.60;32.80;;;;;;5150677;27;47169;-14
2022/01/29 00:42:23;;;;;;;5.65;3.75;;;18.60;32.70;;;;;;5150632;27;46917;-14
2022/01/29 00:44:50;;;;;;;5.03;4.03;;;18.70;32.80;;;;;;5150365;27;48852;-14
2022/01/29 00:47:17;;;;;;;4.78;3.65;;;18.70;32.70;;;;;;5150329;27;46941;-14
2022/01/29 00:49:43;;;;;;;4.53;4.13;;;18.60;32.70;;;;;;5150375;27;46787;-15
2022/01/29 00:52:10;;;;;;;4.70;3.70;;;18.60;32.70;;;;;;5150456;27;47223;-14
2022/01/29 00:54:38;;;;;;;4.30;3.90;;;18.60;32.70;;;;;;5150306;27;46935;-14
2022/01/29 00:57:05;;;;;;;5.13;4.38;;;18.60;32.70;;;;;;5149991;27;46907;-14
2022/01/29 00:59:33;;;;;;;5.68;4.20;;;18.60;32.70;;;;;;5150309;27;46923;-15
2022/01/29 01:02:00;;;;;;;4.00;3.50;;;18.60;32.70;;;;;;5150201;27;46844;-14
2022/01/29 01:04:27;;;;;;;4.60;4.05;;;18.60;32.70;;;;;;5150218;27;47922;-15
2022/01/29 01:06:54;;;;;;;5.43;3.88;;;18.60;32.70;;;;;;5149640;27;47184;-14
2022/01/29 01:09:20;;;;;;;4.30;3.88;;;18.60;32.70;;;;;;5149923;27;46824;-15
2022/01/29 01:11:48;;;;;;;4.60;4.20;;;18.60;32.70;;;;;;5149858;27;46914;-15
2022/01/29 01:14:15;;;;;;;4.57;4.18;;;18.60;32.70;;;;;;5148860;27;47026;-14
2022/01/29 01:16:42;;;;;;;4.38;3.97;;;18.60;32.60;;;;;;5149752;27;47004;-14
2022/01/29 01:19:08;;;;;;;5.20;4.10;;;18.60;32.60;;;;;;5149760;27;46853;-14
2022/01/29 01:21:35;;;;;;;4.45;4.05;;;18.60;32.60;;;;;;5149692;27;47292;-14
2022/01/29 01:24:02;;;;;;;4.93;3.95;;;18.60;32.70;;;;;;5149794;27;47810;-14
2022/01/29 01:26:28;;;;;;;4.13;3.72;;;18.60;32.60;;;;;;5149296;27;46803;-14
2022/01/29 01:28:57;;;;;;;4.15;3.75;;;18.60;32.60;;;;;;5149927;27;47107;-14
2022/01/29 01:31:23;;;;;;;4.05;3.65;;;18.60;32.60;;;;;;5149382;27;47146;-14
2022/01/29 01:33:51;;;;;;;4.85;4.28;;;18.60;32.60;;;;;;5149300;27;48024;-14
2022/01/29 01:36:21;;;;;;;4.32;3.92;;;18.60;32.60;;;;;;5149537;27;47162;-14
2022/01/29 01:38:52;;;;;;;4.00;3.60;;;18.60;32.60;;;;;;5149655;27;46840;-14
2022/01/29 01:41:23;;;;;;;4.97;3.95;;;18.60;32.60;;;;;;5149514;27;46886;-14
2022/01/29 01:43:50;;;;;;;3.97;3.63;;;18.60;32.60;;;;;;5149292;27;47720;-14
2022/01/29 01:46:18;;;;;;;5.28;3.67;;;18.60;32.60;;;;;;5149586;27;47141;-14
2022/01/29 01:48:45;;;;;;;4.15;3.67;;;18.50;32.60;;;;;;5149242;27;46833;-14
2022/01/29 01:51:11;;;;;;;3.53;3.20;;;18.50;32.60;;;;;;5149202;27;46920;-14
2022/01/29 01:53:38;;;;;;;4.00;3.60;;;18.50;32.60;;;;;;5149033;27;46813;-15
2022/01/29 01:56:05;;;;;;;4.00;3.45;;;18.50;32.60;;;;;;5149058;27;47466;-14
2022/01/29 01:58:32;;;;;;;3.40;3.10;;;18.50;32.60;;;;;;5149308;27;46876;-14
2022/01/29 02:00:59;;;;;;;3.63;3.33;;;18.50;32.60;;;;;;5149137;27;46906;-15
2022/01/29 02:03:27;;;;;;;3.47;3.17;;;18.50;32.60;;;;;;5148592;27;49413;-14
2022/01/29 02:05:53;;;;;;;3.28;2.97;;;18.50;32.60;;;;;;5149109;27;47016;-14
2022/01/29 02:08:20;;;;;;;3.63;3.33;;;18.50;32.60;;;;;;5148693;27;46898;-14
2022/01/29 02:10:48;;;;;;;3.70;3.40;;;18.50;32.60;;;;;;5149148;27;46899;-14
2022/01/29 02:13:15;;;;;;;3.33;3.03;;;18.50;32.50;;;;;;5148800;27;48797;-14
2022/01/29 02:15:42;;;;;;;3.60;3.30;;;18.50;32.50;;;;;;5149057;27;46808;-13
2022/01/29 02:18:13;;;;;;;5.10;3.72;;;18.50;32.50;;;;;;5148859;27;46852;-14
2022/01/29 02:20:41;;;;;;;3.38;3.08;;;18.50;32.50;;;;;;5149262;27;46984;-14
2022/01/29 02:23:09;;;;;;;4.05;3.33;;;18.50;32.50;;;;;;5148424;27;47853;-14
2022/01/29 02:25:37;;;;;;;4.00;3.60;;;18.50;32.50;;;;;;5148466;27;46893;-14
2022/01/29 02:28:05;;;;;;;4.07;3.63;;;18.50;32.50;;;;;;5148663;27;46836;-14
2022/01/29 02:30:34;;;;;;;3.45;3.13;;;18.50;32.50;;;;;;5148587;27;46921;-14
2022/01/29 02:33:03;;;;;;;3.63;3.28;;;18.50;32.50;;;;;;5147970;27;48126;-14
2022/01/29 02:35:29;;;;;;;4.40;3.70;;;18.50;32.50;;;;;;5148667;27;46817;-14
2022/01/29 02:37:56;;;;;;;4.55;3.35;;;18.50;32.50;;;;;;5148494;27;46835;-13
2022/01/29 02:40:25;;;;;;;3.55;3.25;;;18.50;32.60;;;;;;5148621;27;46946;-15
2022/01/29 02:42:53;;;;;;;3.53;3.22;;;18.50;32.50;;;;;;5148376;27;48230;-14
2022/01/29 02:45:20;;;;;;;4.72;3.83;;;18.50;32.60;;;;;;5148273;27;46912;-14
2022/01/29 02:47:46;;;;;;;3.85;3.45;;;18.50;32.50;;;;;;5148470;27;46830;-15
2022/01/29 02:50:13;;;;;;;3.65;3.35;;;18.50;32.50;;;;;;5148646;27;46933;-15
2022/01/29 02:52:40;;;;;;;4.63;3.90;;;18.50;32.60;;;;;;5148070;27;46913;-14
2022/01/29 02:55:07;;;;;;;4.40;3.72;;;18.50;32.60;;;;;;5148019;27;46754;-14
2022/01/29 02:57:35;;;;;;;3.90;3.50;;;18.50;32.50;;;;;;5147918;27;46824;-14
2022/01/29 03:00:02;;;;;;;3.63;3.30;;;18.50;32.50;;;;;;5148206;27;47287;-14
2022/01/29 03:02:29;;;;;;;4.47;3.40;;;18.50;32.50;;;;;;5147968;27;47902;-14
2022/01/29 03:04:56;;;;;;;4.15;3.20;;;18.50;32.50;;;;;;5148253;27;46997;-14
2022/01/29 03:07:23;;;;;;;3.88;3.42;;;18.50;32.50;;;;;;5147772;27;47072;-14
2022/01/29 03:09:50;;;;;;;4.50;3.90;;;18.50;32.50;;;;;;5148045;27;47099;-15
2022/01/29 03:12:16;;;;;;;4.43;3.95;;;18.50;32.50;;;;;;5147978;27;48276;-14
2022/01/29 03:14:44;;;;;;;4.28;3.67;;;18.50;32.60;;;;;;5148054;27;46940;-14
2022/01/29 03:17:11;;;;;;;3.92;3.38;;;18.50;32.60;;;;;;5148015;27;46874;-16
2022/01/29 03:19:38;;;;;;;4.10;3.70;;;18.50;32.50;;;;;;5148305;27;46890;-15
2022/01/29 03:22:04;;;;;;;4.63;3.63;;;18.50;32.60;;;;;;5147631;27;49060;-14
2022/01/29 03:24:31;;;;;;;4.07;3.42;;;18.50;32.60;;;;;;5148193;27;47279;-14
2022/01/29 03:26:58;;;;;;;4.93;3.70;;;18.50;32.60;;;;;;5147467;27;46867;-14
2022/01/29 03:29:24;;;;;;;3.97;3.58;;;18.40;32.50;;;;;;5148203;27;47258;-15
2022/01/29 03:31:52;;;;;;;4.15;3.60;;;18.50;32.60;;;;;;5147200;27;47968;-13
2022/01/29 03:34:19;;;;;;;4.00;3.50;;;18.50;32.50;;;;;;5147479;27;47445;-14
2022/01/29 03:36:46;;;;;;;4.32;3.78;;;18.50;32.50;;;;;;5146674;27;46994;-16
2022/01/29 03:39:12;;;;;;;4.45;4.03;;;18.40;32.50;;;;;;5147968;27;47295;-14
2022/01/29 03:41:39;;;;;;;4.00;3.58;;;18.50;32.50;;;;;;5147115;27;47947;-14
2022/01/29 03:44:07;;;;;;;3.67;3.08;;;18.50;32.50;;;;;;5147417;27;46951;-14
2022/01/29 03:46:34;;;;;;;6.18;3.88;;;18.40;32.50;;;;;;5147441;27;46832;-13
2022/01/29 03:49:02;;;;;;;4.22;3.65;;;18.40;32.50;;;;;;5147532;27;47229;-13
2022/01/29 03:51:29;;;;;;;5.25;3.75;;;18.50;32.50;;;;;;5147236;27;47065;-14
2022/01/29 03:53:55;;;;;;;3.75;3.40;;;18.50;32.50;;;;;;5147504;27;47480;-15
2022/01/29 03:56:22;;;;;;;4.35;3.80;;;18.50;32.50;;;;;;5147228;27;46925;-14
2022/01/29 03:58:49;;;;;;;3.95;3.55;;;18.50;32.50;;;;;;5147604;27;46906;-15
2022/01/29 04:01:15;;;;;;;4.32;3.53;;;18.50;32.50;;;;;;5147000;27;48863;-14
2022/01/29 04:03:42;;;;;;;3.70;3.35;;;18.50;32.90;;;;;;5147423;27;47072;-14
2022/01/29 04:06:10;;;;;;;3.90;3.58;;;18.50;32.50;;;;;;5147297;27;46896;-14
2022/01/29 04:08:41;;;;;;;4.75;3.47;;;18.40;32.40;;;;;;5147275;27;47322;-14
2022/01/29 04:11:08;;;;;;;4.68;3.70;;;18.50;32.50;;;;;;5147202;27;49031;-15
2022/01/29 04:13:36;;;;;;;4.47;3.83;;;18.50;32.50;;;;;;5147371;27;47233;-14
2022/01/29 04:16:03;;;;;;;4.53;3.65;;;18.40;32.40;;;;;;5146910;27;46882;-14
2022/01/29 04:18:30;;;;;;;3.97;3.35;;;18.50;32.50;;;;;;5147334;27;46821;-15
2022/01/29 04:20:57;;;;;;;4.80;3.92;;;18.50;32.50;;;;;;5147110;27;48190;-14
2022/01/29 04:23:25;;;;;;;4.07;3.65;;;18.50;32.50;;;;;;5146629;27;46967;-14
2022/01/29 04:25:53;;;;;;;4.13;3.72;;;18.40;32.40;;;;;;5147267;27;46952;-14
2022/01/29 04:28:21;;;;;;;3.85;3.45;;;18.40;32.40;;;;;;5147072;27;46740;-14
2022/01/29 04:30:53;;;;;;;5.35;3.65;;;18.40;32.40;;;;;;5146825;27;48775;-20
2022/01/29 04:33:29;;;;;;;4.15;3.75;;;18.40;32.50;;;;;;5146409;27;47127;-20
2022/01/29 04:35:56;;;;;;;3.90;3.60;;;18.40;32.50;;;;;;5147090;27;46884;-14
2022/01/29 04:38:23;;;;;;;3.97;3.35;;;18.40;32.40;;;;;;5146997;27;47275;-14
2022/01/29 04:40:51;;;;;;;4.40;3.95;;;18.40;32.40;;;;;;5146911;27;48100;-14
2022/01/29 04:43:17;;;;;;;4.38;3.67;;;18.40;32.40;;;;;;5146547;27;46893;-14
2022/01/29 04:45:44;;;;;;;4.32;3.80;;;18.40;32.50;;;;;;5146988;27;46893;-20
2022/01/29 04:48:11;;;;;;;4.30;3.78;;;18.40;32.50;;;;;;5148330;27;46869;-20
2022/01/29 04:50:38;;;;;;;4.53;3.55;;;18.40;32.50;;;;;;5150277;27;48910;-19
2022/01/29 04:53:05;;;;;;;4.35;3.67;;;18.40;32.50;;;;;;5150114;27;46825;-20
2022/01/29 04:55:32;;;;;;;5.35;3.42;;;18.40;32.50;;;;;;5150540;27;46950;-19
2022/01/29 04:58:00;;;;;;;4.10;3.70;;;18.40;32.50;;;;;;5150043;27;46887;-20
2022/01/29 05:00:26;;;;;;;3.75;3.33;;;18.40;32.40;;;;;;5150299;27;48084;-20
2022/01/29 05:02:54;;;;;;;3.70;3.40;;;18.40;32.40;;;;;;5149979;27;47273;-20
2022/01/29 05:05:21;;;;;;;4.35;3.95;;;18.40;32.40;;;;;;5149965;27;46875;-20
2022/01/29 05:07:48;;;;;;;4.07;3.67;;;18.40;32.40;;;;;;5150317;27;47121;-20
2022/01/29 05:10:15;;;;;;;3.72;3.42;;;18.40;33.00;;;;;;5150047;27;47973;-20
2022/01/29 05:12:47;;;;;;;3.95;3.53;;;18.40;32.40;;;;;;5149683;27;47479;-20
2022/01/29 05:15:23;;;;;;;4.00;3.60;;;18.40;32.40;;;;;;5150199;27;46955;-14
2022/01/29 05:28:46;;;;;;;4.20;3.80;;;18.40;32.40;;;;;;5147084;27;46924;-20
2022/01/29 05:31:14;;;;;;;4.85;3.63;;;18.40;32.40;;;;;;5149677;27;47869;-20
2022/01/29 05:33:40;;;;;;;4.82;3.50;;;18.40;32.40;;;;;;5149484;27;46811;-20
2022/01/29 05:36:07;;;;;;;4.72;3.72;;;18.30;32.40;;;;;;5149412;27;46997;-20
2022/01/29 05:38:34;;;;;;;3.97;3.53;;;18.30;32.40;;;;;;5149614;27;46894;-20
2022/01/29 05:41:02;;;;;;;4.45;3.47;;;18.30;32.30;;;;;;5149523;27;48950;-20
2022/01/29 05:43:28;;;;;;;4.60;3.33;;;18.30;32.30;;;;;;5149120;27;46779;-20
2022/01/29 05:45:55;;;;;;;4.50;4.05;;;18.40;32.30;;;;;;5149604;27;46879;-20
2022/01/29 05:48:23;;;;;;;3.88;3.50;;;18.30;32.30;;;;;;5149706;27;46721;-19
2022/01/29 05:50:50;;;;;;;4.50;3.78;;;18.30;32.30;;;;;;5149089;27;47854;-21
2022/01/29 05:53:17;;;;;;;4.60;3.80;;;18.30;32.20;;;;;;5149066;27;46961;-19
2022/01/29 05:55:43;;;;;;;4.35;3.95;;;18.40;32.20;;;;;;5149268;27;46837;-20
2022/01/29 05:58:10;;;;;;;4.47;3.75;;;18.30;32.20;;;;;;5149332;27;46813;-20
2022/01/29 06:00:37;;;;;;;4.25;3.85;;;18.30;32.20;;;;;;5148609;27;49053;-20
2022/01/29 06:03:04;;;;;;;4.18;3.78;;;18.30;32.20;;;;;;5148704;27;46872;-20
2022/01/29 06:05:32;;;;;;;4.00;3.63;;;18.30;32.30;;;;;;5149235;27;46893;-19
2022/01/29 06:07:59;;;;;;;3.75;3.45;;;18.30;32.20;;;;;;5149060;27;47137;-20
2022/01/29 06:10:25;;;;;;;3.90;3.60;;;18.30;32.30;;;;;;5148793;27;48143;-20
2022/01/29 06:13:02;;;;;;;4.68;4.03;;;18.30;32.30;;;;;;5148488;27;47071;-19
2022/01/29 06:15:29;;;;;;;4.22;3.72;;;18.30;32.20;;;;;;5148862;27;46821;-20
2022/01/29 06:17:56;;;;;;;4.45;3.72;;;18.30;32.20;;;;;;5148731;27;47135;-19
2022/01/29 06:20:23;;;;;;;3.97;3.58;;;18.30;32.20;;;;;;5148915;27;48934;-19
2022/01/29 06:22:51;;;;;;;4.03;3.50;;;18.30;32.20;;;;;;5148408;27;47470;-20
2022/01/29 06:25:17;;;;;;;4.65;3.60;;;18.30;32.20;;;;;;5149064;27;46841;-20
2022/01/29 06:27:44;;;;;;;4.25;3.53;;;18.30;32.20;;;;;;5148596;27;46945;-20
2022/01/29 06:30:11;;;;;;;4.20;3.80;;;18.30;32.20;;;;;;5148517;27;49037;-15
2022/01/29 06:32:38;;;;;;;4.50;3.60;;;18.30;32.10;;;;;;5148215;27;47167;-14
2022/01/29 06:35:05;;;;;;;3.80;3.40;;;18.30;32.10;;;;;;5148766;27;46890;-14
2022/01/29 06:37:32;;;;;;;4.18;3.78;;;18.30;32.10;;;;;;5148742;27;46870;-14
2022/01/29 06:40:00;;;;;;;4.28;3.67;;;18.30;32.10;;;;;;5148526;27;46913;-15
2022/01/29 06:42:27;;;;;;;4.03;3.63;;;18.30;32.10;;;;;;5148517;27;46886;-15
2022/01/29 06:44:53;;;;;;;3.72;3.42;;;18.30;32.10;;;;;;5148561;27;46990;-14
2022/01/29 06:47:20;;;;;;;3.55;3.25;;;18.30;32.10;;;;;;5148511;27;46886;-14
2022/01/29 06:49:47;;;;;;;3.63;3.33;;;18.30;32.10;;;;;;5148445;27;49050;-14
2022/01/29 06:52:13;;;;;;;4.40;3.78;;;18.30;32.00;;;;;;5148171;27;47417;-13
2022/01/29 06:54:40;;;;;;;3.90;3.45;;;18.30;32.00;;;;;;5148264;27;46853;-14
2022/01/29 06:57:08;;;;;;;3.90;3.47;;;18.30;32.10;;;;;;5148222;27;46939;-15
2022/01/29 06:59:35;;;;;;;3.90;3.50;;;18.30;32.70;;;;;;5148229;27;48399;-15
2022/01/29 07:02:02;;;;;;;4.07;3.67;;;18.40;32.10;;;;;;5148182;27;46894;-15
2022/01/29 07:04:28;;;;;;;3.67;3.38;;;18.30;32.00;;;;;;5148011;27;46982;-15
2022/01/29 07:06:55;;;;;;;3.60;3.28;;;18.40;32.10;;;;;;5148225;27;46923;-15
2022/01/29 07:09:22;;;;;;;3.78;3.38;;;18.40;32.10;;;;;;5148091;27;49929;-14
2022/01/29 07:11:54;;;;;;;3.97;3.38;;;18.40;32.10;;;;;;5146755;27;46886;-15
2022/01/29 07:14:22;;;;;;;4.35;3.42;;;18.40;32.00;;;;;;5148281;27;46932;-14
2022/01/29 07:16:49;;;;;;;3.55;3.25;;;18.40;32.10;;;;;;5148126;27;46832;-15
2022/01/29 07:19:16;;;;;;;3.60;3.30;;;18.40;32.00;;;;;;5147995;27;49137;-15
2022/01/29 07:21:43;;;;;;;4.03;3.40;;;18.40;32.00;;;;;;5147581;27;46955;-15
2022/01/29 07:24:09;;;;;;;3.53;3.10;;;18.40;32.00;;;;;;5147951;27;46850;-16
2022/01/29 07:26:36;;;;;;;3.42;3.13;;;18.40;32.00;;;;;;5148068;27;47283;-15
2022/01/29 07:29:03;;;;;;;3.83;3.53;;;18.40;32.00;;;;;;5147744;27;46912;-15
2022/01/29 07:31:31;;;;;;;3.95;3.55;;;18.40;31.90;;;;;;5146980;27;48284;-14
2022/01/29 07:33:57;;;;;;;3.47;3.17;;;18.40;31.90;;;;;;5147776;27;46993;-15
2022/01/29 07:36:24;;;;;;;3.60;3.30;;;18.40;32.00;;;;;;5148006;27;46941;-15
2022/01/29 07:38:51;;;;;;;3.90;3.50;;;18.40;31.90;;;;;;5147255;27;49290;-16
2022/01/29 07:41:17;;;;;;;3.50;3.20;;;18.40;31.90;;;;;;5147693;27;47036;-15
2022/01/29 07:43:44;;;;;;;3.35;3.05;;;18.40;31.90;;;;;;5147806;27;47013;-15
2022/01/29 07:46:11;;;;;;;3.42;3.13;;;18.40;31.90;;;;;;5147754;27;47182;-15
2022/01/29 07:48:39;;;;;;;3.15;2.88;;;18.40;31.90;;;;;;5147217;27;47885;-15
2022/01/29 07:51:05;;;;;;;3.60;3.05;;;18.40;32.00;;;;;;5147577;27;46877;-15
2022/01/29 07:53:32;;;;;;;3.83;3.28;;;18.40;32.00;;;;;;5147531;27;47010;-14
2022/01/29 07:55:59;;;;;;;3.80;3.40;;;18.40;32.00;;;;;;5147752;27;46957;-15
2022/01/29 07:58:26;;;;;;;3.42;3.13;;;18.40;31.90;;;;;;5147179;27;49046;-15
2022/01/29 08:00:53;;;;;;;3.30;3.00;;;18.40;32.00;;;;;;5147436;27;46879;-15
2022/01/29 08:03:19;;;;;;;3.38;3.00;;;18.40;31.90;;;;;;5146994;27;46903;-15
2022/01/29 08:05:47;;;;;;;3.00;2.80;;;18.40;32.50;;;;;;5147570;27;47184;-14
2022/01/29 08:08:14;;;;;;;3.00;2.70;;;18.50;31.90;;;;;;5147012;27;48143;-15
2022/01/29 08:10:41;;;;;;;3.70;3.20;;;18.40;31.80;;;;;;5147023;27;46820;-15
2022/01/29 08:13:08;;;;;;;3.28;2.97;;;18.40;31.90;;;;;;5146898;27;47002;-15
2022/01/29 08:15:34;;;;;;;4.28;3.13;;;18.40;31.90;;;;;;5147230;27;47196;-16
2022/01/29 08:18:02;;;;;;;3.42;3.13;;;18.40;31.90;;;;;;5147027;27;47152;-15
2022/01/29 08:20:29;;;;;;;2.85;2.63;;;18.40;31.90;;;;;;5146950;27;47392;-15
2022/01/29 08:22:57;;;;;;;3.10;2.75;;;18.40;31.90;;;;;;5147954;27;46759;-15
2022/01/29 08:25:24;;;;;;;2.65;2.33;;;18.40;31.90;;;;;;5151143;27;47287;-15
2022/01/29 08:27:51;;;;;;;2.97;2.33;;;18.50;31.90;;;;;;5150524;27;47005;-15
2022/01/29 08:30:17;;;;;;;2.55;2.35;;;18.40;31.90;;;;;;5150854;27;46934;-15
2022/01/29 08:32:44;;;;;;;2.92;2.72;;;18.50;31.90;;;;;;5149753;27;47048;-15
2022/01/29 08:35:13;;;;;;;2.65;2.45;;;18.40;31.90;;;;;;5150908;27;46898;-15
2022/01/29 08:37:40;;;;;;;2.92;2.55;;;18.40;31.80;;;;;;5150349;27;49383;-15
2022/01/29 08:40:11;;;;;;;2.67;2.45;;;18.50;31.90;;;;;;5150334;27;47149;-15
2022/01/29 08:42:37;;;;;;;3.42;2.65;;;18.40;31.90;;;;;;5148589;27;46808;-15
2022/01/29 08:45:05;;;;;;;2.53;2.33;;;18.40;31.90;;;;;;5150810;27;46893;-15
2022/01/29 08:47:32;;;;;;;2.60;2.40;;;18.40;31.90;;;;;;5150482;27;47942;-15
2022/01/29 08:50:00;;;;;;;2.85;2.53;;;18.40;31.90;;;;;;5150429;27;46841;-15
2022/01/29 08:52:27;;;;;;;2.70;2.50;;;18.50;31.90;;;;;;5150299;27;46738;-16
2022/01/29 08:54:54;;;;;;;2.40;2.20;;;18.50;31.80;;;;;;5150650;27;46889;-14
2022/01/29 08:57:22;;;;;;;2.60;2.17;;;18.50;31.90;;;;;;5149798;27;46900;-15
2022/01/29 08:59:48;;;;;;;2.30;2.10;;;18.50;32.50;;;;;;5150255;27;46833;-15
2022/01/29 09:02:15;;;;;;;2.75;2.55;;;18.50;31.80;;;;;;5150074;27;46757;-20
2022/01/29 09:04:42;;;;;;;2.60;2.22;;;18.50;31.90;;;;;;5150474;27;47170;-21
2022/01/29 09:07:09;;;;;;;2.25;2.10;;;18.50;31.90;;;;;;5149691;27;48024;-20
2022/01/29 09:09:36;;;;;;;2.78;2.30;;;18.50;32.20;;;;;;5149860;27;46981;-21
2022/01/29 09:12:03;;;;;;;2.63;2.25;;;18.50;31.90;;;;;;5149900;27;47077;-21
2022/01/29 09:14:31;;;;;;;2.20;2.00;;;18.50;31.80;;;;;;5150016;27;47187;-21
2022/01/29 09:16:58;;;;;;;2.75;2.30;;;18.50;31.90;;;;;;5149778;27;48098;-21
2022/01/29 09:19:25;;;;;;;2.33;2.00;;;18.60;31.90;;;;;;5149744;27;46919;-21
2022/01/29 09:21:52;;;;;;;2.13;1.92;;;18.60;31.90;;;;;;5149708;27;46894;-21
2022/01/29 09:24:18;;;;;;;2.30;2.10;;;18.60;31.80;;;;;;5150279;27;46878;-22
2022/01/29 09:26:45;;;;;;;2.03;1.92;;;18.60;31.90;;;;;;5149510;27;49061;-21
2022/01/29 09:29:12;;;;;;;2.05;1.95;;;18.60;31.90;;;;;;5149812;27;46898;-21
2022/01/29 09:31:40;;;;;;;2.20;2.00;;;18.50;31.90;;;;;;5149250;27;46879;-21
2022/01/29 09:34:06;;;;;;;2.28;2.05;;;18.60;32.00;;;;;;5148827;27;47012;-20
2022/01/29 09:36:33;;;;;;;2.17;1.98;;;18.60;32.00;;;;;;5166773;27;49035;-22
2022/01/29 09:39:00;;;;;;;2.20;2.00;;;18.50;32.00;;;;;;5170625;27;46895;-21
2022/01/29 09:41:27;;;;;;;2.10;2.00;;;18.60;32.00;;;;;;5170310;27;46804;-21
2022/01/29 09:43:54;;;;;;;2.13;1.98;;;18.60;32.00;;;;;;5170661;27;46872;-21
2022/01/29 09:46:21;;;;;;;2.00;1.90;;;18.60;32.00;;;;;;5170532;27;48232;-21
2022/01/29 09:48:49;;;;;;;2.30;2.10;;;18.60;32.00;;;;;;5170201;27;46893;-21
2022/01/29 09:51:16;;;;;;;1.70;1.60;;;18.60;32.00;;;;;;5170155;27;46848;-20
2022/01/29 09:53:43;;;;;;;2.20;2.00;;;18.60;32.00;;;;;;5170086;27;47072;-20
2022/01/29 09:56:10;;;;;;;1.85;1.75;;;18.60;31.90;;;;;;5170240;27;47081;-21
2022/01/29 09:58:36;;;;;;;2.38;2.17;;;18.60;31.90;;;;;;5170352;27;46934;-21
2022/01/29 10:01:03;;;;;;;1.90;1.70;;;18.60;32.00;;;;;;5170009;27;46894;-20
2022/01/29 10:03:31;;;;;;;2.17;1.98;;;18.70;32.00;;;;;;5169795;27;46929;-21
2022/01/29 10:06:04;;;;;;;2.05;1.95;;;18.70;31.70;;;;;;5183089;27;48969;-21
2022/01/29 10:08:42;;;;;;;2.33;1.90;;;18.70;31.70;;;;;;5175201;27;46927;-21
2022/01/29 10:11:19;;;;;;;1.85;1.75;;;18.70;31.70;;;;;;5172931;27;46866;-21
2022/01/29 10:13:46;;;;;;;1.90;1.80;;;18.70;31.80;;;;;;5176230;27;47010;-21
2022/01/29 10:16:15;;;;;;;2.10;1.90;;;18.80;31.90;;;;;;5180871;27;48170;-21
2022/01/29 10:18:45;;;;;;;1.65;1.55;;;18.80;31.80;;;;;;5181881;27;47169;-21
2022/01/29 10:21:15;;;;;;;1.67;1.58;;;18.80;31.90;;;;;;5178040;27;46906;-22
2022/01/29 10:23:42;;;;;;;2.33;2.03;;;18.80;31.90;;;;;;5179217;27;47057;-22
2022/01/29 10:26:10;;;;;;;2.22;1.77;;;18.80;31.90;;;;;;5178299;27;48168;-21
2022/01/29 10:28:37;;;;;;;1.92;1.80;;;18.80;31.90;;;;;;5175501;27;46969;-21
2022/01/29 10:31:05;;;;;;;2.03;1.83;;;18.80;31.90;;;;;;5178912;27;46836;-22
2022/01/29 10:33:32;;;;;;;1.70;1.60;;;18.90;31.90;;;;;;5180088;27;46956;-21
2022/01/29 10:36:01;;;;;;;2.20;2.00;;;18.80;31.90;;;;;;5177968;27;47963;-21
2022/01/29 10:38:30;;;;;;;1.83;1.73;;;18.90;32.00;;;;;;5178006;27;46901;-22
2022/01/29 10:41:15;;;;;;;1.70;1.60;;;18.90;31.90;;;;;;5175033;27;46934;-21
2022/01/29 10:43:59;;;;;;;3.58;1.90;;;18.90;31.90;;;;;;5176532;27;46880;-21
2022/01/29 10:46:26;;;;;;;1.98;1.85;;;18.90;31.60;;;;;;5180606;27;46880;-21
2022/01/29 10:48:53;;;;;;;1.70;1.60;;;19.00;31.80;;;;;;5189967;27;46911;-21
2022/01/29 10:51:20;;;;;;;1.70;1.60;;;19.00;31.80;;;;;;5190437;27;46995;-21
2022/01/29 10:53:48;;;;;;;2.17;1.70;;;19.00;31.80;;;;;;5190349;27;46992;-22
2022/01/29 10:56:15;;;;;;;1.80;1.65;;;19.00;31.80;;;;;;5190386;27;47927;-21
2022/01/29 10:58:42;;;;;;;3.22;1.90;;;19.00;31.90;;;;;;5189987;27;46863;-21
2022/01/29 11:01:15;;;;;;;7.22;1.85;;;19.10;31.80;;;;;;5190266;27;46774;-21
2022/01/29 11:03:42;;;;;;;2.00;1.80;;;19.10;32.00;;;;;;5190394;27;46930;-21
2022/01/29 11:06:11;;;;;;;2.63;1.73;;;19.20;31.90;;;;;;5190187;27;47990;-22
2022/01/29 11:08:38;;;;;;;2.92;1.88;;;19.20;31.90;;;;;;5189767;27;47398;-21
2022/01/29 11:11:07;;;;;;;2.78;1.92;;;19.20;31.90;;;;;;5190304;27;46923;-20
2022/01/29 11:13:34;;;;;;;2.08;1.60;;;19.10;31.90;;;;;;5190152;27;47110;-21
2022/01/29 11:16:00;;;;;;;2.05;1.70;;;19.10;32.00;;;;;;5189792;27;47937;-21
2022/01/29 11:18:27;;;;;;;3.75;1.63;;;19.10;32.00;;;;;;5189691;27;47318;-20
2022/01/29 11:20:57;;;;;;;2.00;1.67;;;19.10;32.10;;;;;;5190016;27;46931;-21
2022/01/29 11:23:24;;;;;;;4.70;1.70;;;19.10;32.10;;;;;;5188827;27;46788;-21
2022/01/29 11:25:54;;;;;;;1.38;1.27;;;19.10;32.20;;;;;;5189301;27;47118;-21
2022/01/29 11:28:23;;;;;;;2.65;1.58;;;19.10;32.30;;;;;;5189543;27;47131;-20
2022/01/29 11:31:18;;;;;;;1.58;1.42;;;19.10;32.30;;;;;;5189819;27;46786;-20
2022/01/29 11:34:27;;;;;;;1.38;1.27;;;19.10;32.30;;;;;;5190167;27;47123;-21
2022/01/29 11:37:06;;;;;;;1.70;1.60;;;19.10;32.30;;;;;;5162659;27;48134;-20
2022/01/29 11:39:36;;;;;;;1.60;1.50;;;19.20;32.30;;;;;;5189892;27;47168;-20
2022/01/29 11:42:31;;;;;;;2.22;1.42;;;19.20;32.30;;;;;;5189780;27;47077;-21
2022/01/29 11:45:14;;;;;;;1.40;1.30;;;19.20;32.40;;;;;;5189985;27;47085;-21
2022/01/29 11:47:47;;;;;;;2.78;1.50;;;19.20;32.40;;;;;;5188677;27;48817;-20
2022/01/29 11:50:43;;;;;;;5.05;1.50;;;19.20;32.40;;;;;;5189703;27;46824;-21
2022/01/29 11:53:10;;;;;;;1.30;1.30;;;19.20;32.50;;;;;;5189424;27;46892;-21
2022/01/29 11:55:39;;;;;;;1.48;1.38;;;19.20;32.50;;;;;;5189804;27;46869;-21
2022/01/29 11:58:19;;;;;;;1.50;1.40;;;19.20;32.60;;;;;;5188455;27;47044;-21
2022/01/29 12:00:49;;;;;;;1.90;1.60;;;19.10;32.70;;;;;;5173340;27;46965;-21
2022/01/29 12:03:53;;;;;;;1.65;1.30;;;19.10;32.80;;;;;;5167076;27;46970;-20
2022/01/29 12:06:23;;;;;;;1.50;1.40;;;19.10;32.90;;;;;;5167389;27;46960;-20
2022/01/29 12:09:33;;;;;;;1.38;1.27;;;19.00;32.90;;;;;;5168380;27;48795;-21
2022/01/29 12:12:20;;;;;;;1.67;1.58;;;19.00;33.10;;;;;;5167925;27;46965;-20
2022/01/29 12:14:48;;;;;;;1.92;1.58;;;19.00;33.10;;;;;;5168023;27;46834;-20
2022/01/29 12:17:38;;;;;;;1.35;1.27;;;19.00;33.10;;;;;;5168009;27;46886;-20
2022/01/29 12:20:05;;;;;;;1.40;1.30;;;19.00;33.10;;;;;;5168449;27;48804;-21
2022/01/29 12:22:34;;;;;;;1.48;1.30;;;19.00;33.20;;;;;;5168698;27;47222;-21
2022/01/29 12:25:02;;;;;;;1.45;1.35;;;19.00;33.30;;;;;;5168173;27;46903;-21
2022/01/29 12:27:43;;;;;;;1.20;1.10;;;18.90;33.30;;;;;;5168249;27;46878;-21
2022/01/29 12:30:10;;;;;;;1.13;1.10;;;18.90;33.30;;;;;;5167998;27;47907;-20
2022/01/29 12:32:38;;;;;;;1.38;1.27;;;18.90;33.30;;;;;;5167372;27;47006;-21
2022/01/29 12:35:05;;;;;;;1.15;1.10;;;18.90;33.30;;;;;;5167966;27;47017;-21
2022/01/29 12:37:32;;;;;;;1.02;1.00;;;19.00;33.40;;;;;;5168016;27;47179;-21
2022/01/29 12:40:09;;;;;;;1.30;1.20;;;19.00;33.40;;;;;;5167857;27;47086;-21
2022/01/29 12:42:43;;;;;;;1.30;1.20;;;19.00;33.50;;;;;;5167307;27;46743;-21
2022/01/29 12:45:10;;;;;;;1.30;1.20;;;18.90;33.40;;;;;;5167695;27;46984;-21
2022/01/29 12:47:39;;;;;;;1.70;1.40;;;19.00;33.50;;;;;;5167788;27;46893;-21
2022/01/29 12:50:06;;;;;;;1.40;1.30;;;19.00;33.50;;;;;;5167119;27;47929;-21
2022/01/29 12:52:33;;;;;;;2.38;1.45;;;19.00;33.60;;;;;;5167527;27;47135;-21
2022/01/29 12:55:00;;;;;;;1.30;1.20;;;18.90;33.50;;;;;;5167666;27;46818;-21
2022/01/29 12:57:40;;;;;;;1.27;1.15;;;18.90;33.60;;;;;;5167461;27;47226;-21
2022/01/29 13:00:08;;;;;;;1.17;1.10;;;18.90;33.60;;;;;;5167337;27;46862;-21
2022/01/29 13:02:34;;;;;;;1.25;1.17;;;18.90;33.60;;;;;;5167153;27;46807;-21
2022/01/29 13:05:03;;;;;;;1.30;1.20;;;18.90;33.70;;;;;;5167276;27;47270;-20